»·PEaware :: N802TZ KBFL-KBUR

N802TZ :: KBFL-KBUR

FLIGHT INFORMATION

Flight Status: Arrived
Operator: Privately registered:
United States
More flights under this callsign
Pilot: Vinicius U. (17612)
Aircraft: PIPER PA-46-310/350P MALIBU MIRAGE
(PA46)
More flights by this aircraft type
Origin: KBFL Meadows
United States
Destination: KBUR Bob Hope-Burbank
United States
More flights between these airports :: More routes between these airports
Route: +MEADO3 LHS LYNXX9
File this flight plan on PilotEdge
Remarks:
Altitude:
(Current/Filed)
13,000ft
Speed:
(Current/Filed)
130kts
Departed: 02-Jan-18 10:33 AM
Arrived: 02-Jan-18 11:14 AM
Distance/Time
Traveled:
81nm/0:41
Distance/Time
To Go:
Arrived

Flight Plot

Page will automatically refresh every two minutes.

Flight plan parsing failed; only flown route is shown


Map Options




Map Legend


Flown Route
Filed Route
Departure Airport
Arrival Airport
Navaid (VOR, NDB)
Fix

Horizontal Profiles

Position Reports

Time Latitude Longitude Heading Altitude Ground
Speed
02-Jan-18 10:11 35.425031 -119.041502 182 511ft 0kts
02-Jan-18 10:12 35.425031 -119.041502 182 511ft 0kts
02-Jan-18 10:13 35.425031 -119.041502 182 511ft 0kts
02-Jan-18 10:14 35.425031 -119.041502 182 511ft 0kts
02-Jan-18 10:15 35.425031 -119.041502 182 511ft 0kts
02-Jan-18 10:16 35.425031 -119.041502 182 511ft 0kts
02-Jan-18 10:17 35.425031 -119.041502 182 511ft 0kts
02-Jan-18 10:18 35.425031 -119.041502 182 511ft 0kts
02-Jan-18 10:19 35.425031 -119.041502 182 511ft 0kts
02-Jan-18 10:20 35.425031 -119.041502 182 511ft 0kts
02-Jan-18 10:21 35.425031 -119.041502 182 511ft 0kts
02-Jan-18 10:22 35.425031 -119.041502 182 511ft 0kts
02-Jan-18 10:23 35.425031 -119.041502 182 511ft 0kts
02-Jan-18 10:24 35.425031 -119.041502 182 511ft 0kts
02-Jan-18 10:25 35.425030 -119.041502 182 511ft 0kts
02-Jan-18 10:26 35.425029 -119.041502 182 511ft 0kts
02-Jan-18 10:27 35.425027 -119.041502 182 511ft 0kts
02-Jan-18 10:28 35.425026 -119.041502 182 511ft 0kts
02-Jan-18 10:29 35.425024 -119.041503 182 511ft 0kts
02-Jan-18 10:30 35.425023 -119.041503 182 511ft 0kts
02-Jan-18 10:31 35.424952 -119.041517 205 511ft 0kts
02-Jan-18 10:32 35.426574 -119.044486 267 511ft 12kts
02-Jan-18 10:33 35.425982 -119.045707 228 511ft 0kts
02-Jan-18 10:34 35.425980 -119.045710 228 511ft 0kts
02-Jan-18 10:35 35.425978 -119.045712 228 511ft 0kts
02-Jan-18 10:36 35.425977 -119.045714 228 511ft 0kts
02-Jan-18 10:37 35.425975 -119.045716 228 511ft 0kts
02-Jan-18 10:38 35.425875 -119.046585 320 511ft 16kts
02-Jan-18 10:39 35.440218 -119.063653 315 819ft 116kts
02-Jan-18 10:40 35.465315 -119.094986 313 1963ft 130kts
02-Jan-18 10:41 35.489684 -119.126056 312 2889ft 127kts
02-Jan-18 10:42 35.505230 -119.165244 226 3214ft 156kts
02-Jan-18 10:43 35.468245 -119.156389 152 4421ft 131kts
02-Jan-18 10:44 35.436338 -119.137373 151 5570ft 129kts
02-Jan-18 10:45 35.403536 -119.118113 151 6573ft 130kts
02-Jan-18 10:46 35.371060 -119.099136 151 7521ft 131kts
02-Jan-18 10:47 35.337087 -119.079214 151 8239ft 138kts
02-Jan-18 10:48 35.302541 -119.058303 149 8938ft 139kts
02-Jan-18 10:49 35.268481 -119.034987 149 9892ft 141kts
02-Jan-18 10:50 35.234256 -119.010990 149 10891ft 141kts
02-Jan-18 10:51 35.200268 -118.986658 149 11889ft 142kts
02-Jan-18 10:52 35.165947 -118.961771 149 12854ft 146kts
02-Jan-18 10:53 35.126615 -118.933016 149 13021ft 178kts
02-Jan-18 10:54 35.084262 -118.902107 149 13015ft 175kts
02-Jan-18 10:55 35.042767 -118.871918 149 13015ft 172kts
02-Jan-18 10:56 35.001734 -118.842116 149 13016ft 171kts
02-Jan-18 10:57 34.960791 -118.812419 149 13019ft 171kts
02-Jan-18 10:58 34.919641 -118.783025 149 13019ft 171kts
02-Jan-18 10:59 34.878577 -118.754128 149 13017ft 170kts
02-Jan-18 11:00 34.844360 -118.730209 149 13015ft 170kts
02-Jan-18 11:01 34.801124 -118.688022 131 12924ft 172kts
02-Jan-18 11:02 34.768887 -118.645285 134 12916ft 171kts
02-Jan-18 11:03 34.740323 -118.612173 143 12916ft 170kts
02-Jan-18 11:04 34.698571 -118.584724 150 12918ft 170kts
02-Jan-18 11:05 34.653626 -118.575206 192 12923ft 174kts
02-Jan-18 11:06 34.603145 -118.579558 165 12317ft 189kts
02-Jan-18 11:07 34.550813 -118.563427 164 11400ft 197kts
02-Jan-18 11:08 34.505680 -118.539180 151 10498ft 195kts
02-Jan-18 11:09 34.466759 -118.514494 151 9685ft 193kts
02-Jan-18 11:10 34.419440 -118.485023 151 8685ft 190kts
02-Jan-18 11:11 34.372248 -118.455989 150 7368ft 195kts
02-Jan-18 11:12 34.320526 -118.441611 200 5593ft 197kts
02-Jan-18 11:13 34.282701 -118.487292 229 3834ft 190kts
02-Jan-18 11:14 34.246124 -118.519330 186 3266ft 154kts
02-Jan-18 11:15 34.217225 -118.495749 83 2409ft 125kts
02-Jan-18 11:16 34.209236 -118.458349 120 1606ft 107kts
02-Jan-18 11:17 34.199332 -118.429243 108 1320ft 87kts
02-Jan-18 11:18 34.198510 -118.400919 91 1128ft 78kts
02-Jan-18 11:19 34.197930 -118.372365 90 860ft 89kts
02-Jan-18 11:20 34.198368 -118.357958 1 782ft 5kts
02-Jan-18 11:21 34.198443 -118.357956 1 782ft 0kts
02-Jan-18 11:22 34.198667 -118.357955 1 782ft 8kts
02-Jan-18 11:23 34.202329 -118.359837 258 782ft 9kts
02-Jan-18 11:24 34.202225 -118.360527 269 782ft 0kts
02-Jan-18 11:25 34.202225 -118.360527 269 782ft 0kts
02-Jan-18 11:26 34.202225 -118.360527 269 782ft 0kts
02-Jan-18 11:27 34.202225 -118.360527 269 782ft 0kts
02-Jan-18 11:28 34.202225 -118.360527 269 782ft 0kts
02-Jan-18 11:29 34.202225 -118.360527 269 782ft 0kts
02-Jan-18 11:30 34.202225 -118.360527 269 782ft 0kts
02-Jan-18 11:31 34.202225 -118.360527 269 782ft 0kts
02-Jan-18 11:32 34.202225 -118.360527 269 782ft 0kts
02-Jan-18 11:33 34.202225 -118.360527 269 782ft 0kts
02-Jan-18 11:34 34.202225 -118.360527 269 782ft 0kts
02-Jan-18 11:35 34.202225 -118.360527 269 782ft 0kts

Navigation Log

Ident Type
Flight plan parsing failed, navigation log unavailable